Baudette, Minnesota
Current Conditions -  °F | °C
As of 1:53 AM on Monday 26 Jan 2015 (Local Time) from KBDE Reporting Station
Overcast Overcast  
Wind Chill: 13°   Ceiling: 1400
Heat Index: 25°   Visibility: 10mi
Dew Point: 19°   Wind: 15mph
Humidity: 78%   Direction: 180°S
Pressure: 29.58"   Gusts: NA
Location:  48.71°N, 94.6°W
Report Text: KBDE 260753Z AUTO 18013KT 10SM OVC014 M04/M07 A2958 RMK AO2 SLP036 T10391072 TSNO $
Loading
Personal Weather Stations






























Interactive Weather Map New forecast layout! Learn more

10-Day Weather Forecast

Advertisements
Track Severe Weather on mobile